Time;durP1;ratioP1;P1;durP2;ratioP2;P2;SDS_P1;SDS_P2;PMS_P1;PMS_P2;Temp;Humidity;BMP_temperature;BMP_pressure;BME280_temperature;BME280_humidity;BME280_pressure;Samples;Min_cycle;Max_cycle;Signal;HPM_P1;HPM_P2
2021/08/17 00:01:40;;;;;;;20.23;3.57;;;14.50;91.90;;;;;;5053860;28;20040;-69
2021/08/17 00:04:05;;;;;;;19.67;4.20;;;14.40;91.90;;;;;;5053573;28;20049;-69
2021/08/17 00:06:31;;;;;;;19.40;3.67;;;14.40;91.80;;;;;;5054190;28;20064;-70
2021/08/17 00:08:57;;;;;;;19.07;3.87;;;14.40;91.70;;;;;;5054088;28;20056;-69
2021/08/17 00:11:22;;;;;;;14.03;4.33;;;14.40;91.60;;;;;;5053287;28;20130;-68
2021/08/17 00:13:48;;;;;;;18.50;4.30;;;14.40;91.50;;;;;;5053964;28;20051;-69
2021/08/17 00:16:15;;;;;;;15.13;4.07;;;14.40;91.50;;;;;;5054064;28;20048;-70
2021/08/17 00:18:41;;;;;;;14.50;3.80;;;14.30;91.50;;;;;;5052965;28;20060;-69
2021/08/17 00:21:07;;;;;;;18.37;3.77;;;14.30;91.60;;;;;;5053838;28;20052;-69
2021/08/17 00:23:33;;;;;;;17.13;5.10;;;14.30;91.50;;;;;;5054103;28;20041;-68
2021/08/17 00:26:02;;;;;;;22.60;4.83;;;14.20;91.60;;;;;;5053071;28;20055;-70
2021/08/17 00:28:28;;;;;;;18.23;3.53;;;14.20;91.60;;;;;;5053780;28;20118;-68
2021/08/17 00:30:54;;;;;;;13.27;4.20;;;14.20;91.50;;;;;;5053310;28;20466;-69
2021/08/17 00:33:19;;;;;;;17.80;4.23;;;14.20;91.50;;;;;;5053425;28;20053;-69
2021/08/17 00:35:45;;;;;;;18.80;3.50;;;14.10;91.50;;;;;;5053391;28;20076;-68
2021/08/17 00:38:10;;;;;;;16.43;4.10;;;14.10;91.60;;;;;;5053621;28;20482;-69
2021/08/17 00:40:36;;;;;;;16.07;3.87;;;14.10;91.70;;;;;;5052989;28;20420;-69
2021/08/17 00:43:03;;;;;;;14.97;4.13;;;14.10;91.70;;;;;;5053361;28;20053;-67
2021/08/17 00:45:29;;;;;;;19.47;4.00;;;14.00;91.70;;;;;;5052878;28;20123;-68
2021/08/17 00:47:56;;;;;;;18.00;4.07;;;14.00;91.70;;;;;;5053007;28;20123;-69
2021/08/17 00:50:27;;;;;;;20.27;3.40;;;14.00;91.80;;;;;;5053189;28;20158;-69
2021/08/17 00:52:54;;;;;;;16.70;3.77;;;14.00;91.80;;;;;;5052463;28;20053;-69
2021/08/17 00:55:20;;;;;;;14.10;3.93;;;13.90;91.90;;;;;;5053510;28;20041;-69
2021/08/17 00:57:47;;;;;;;15.97;3.47;;;13.90;91.90;;;;;;5052956;28;20087;-68
2021/08/17 01:00:13;;;;;;;11.87;3.60;;;13.90;91.90;;;;;;5052176;28;20493;-68
2021/08/17 01:02:41;;;;;;;21.00;4.17;;;13.90;91.90;;;;;;5052448;28;20049;-69
2021/08/17 01:05:08;;;;;;;15.27;3.60;;;13.90;91.90;;;;;;5053219;28;20473;-70
2021/08/17 01:07:34;;;;;;;16.70;4.00;;;13.90;92.00;;;;;;5052287;28;20053;-70
2021/08/17 01:10:00;;;;;;;15.97;3.20;;;13.90;92.00;;;;;;5052655;28;20056;-69
2021/08/17 01:12:26;;;;;;;16.63;3.50;;;13.90;91.90;;;;;;5053055;28;20067;-69
2021/08/17 01:14:52;;;;;;;16.97;3.83;;;13.90;91.90;;;;;;5051733;28;20048;-69
2021/08/17 01:17:18;;;;;;;12.97;3.87;;;13.90;91.80;;;;;;5052755;28;20505;-69
2021/08/17 01:19:45;;;;;;;15.53;3.20;;;13.90;91.80;;;;;;5052061;28;20342;-70
2021/08/17 01:22:12;;;;;;;17.63;3.67;;;13.90;91.70;;;;;;5051706;28;20163;-69
2021/08/17 01:24:38;;;;;;;16.73;3.90;;;13.90;91.70;;;;;;5052892;28;20061;-70
2021/08/17 01:27:03;;;;;;;15.80;3.47;;;13.90;91.70;;;;;;5052891;28;20464;-69
2021/08/17 01:29:30;;;;;;;14.70;4.00;;;14.00;91.60;;;;;;5051890;28;20056;-69
2021/08/17 01:31:57;;;;;;;15.40;3.40;;;13.90;92.00;;;;;;5052151;28;20049;-69
2021/08/17 01:34:23;;;;;;;17.17;3.30;;;13.90;91.50;;;;;;5052754;28;20102;-71
2021/08/17 01:36:49;;;;;;;13.87;2.97;;;13.90;91.40;;;;;;5051638;28;20048;-69
2021/08/17 01:39:16;;;;;;;17.77;3.30;;;13.90;91.40;;;;;;5052628;28;20481;-69
2021/08/17 01:41:42;;;;;;;11.10;2.80;;;13.90;91.30;;;;;;5052251;28;20493;-69
2021/08/17 01:44:16;;;;;;;11.67;2.67;;;13.90;91.30;;;;;;5051966;28;20104;-68
2021/08/17 01:46:43;;;;;;;10.57;3.07;;;13.90;91.30;;;;;;5051786;28;20131;-69
2021/08/17 01:49:09;;;;;;;9.03;2.90;;;13.90;91.70;;;;;;5051506;28;20103;-71
2021/08/17 01:51:35;;;;;;;13.17;3.07;;;13.90;91.30;;;;;;5052073;28;20486;-71
2021/08/17 01:54:07;;;;;;;11.53;2.70;;;13.90;91.30;;;;;;5052007;28;20055;-69
2021/08/17 01:56:33;;;;;;;10.57;3.37;;;13.80;91.20;;;;;;5051569;28;20490;-70
2021/08/17 01:59:02;;;;;;;17.50;3.70;;;13.80;91.20;;;;;;5051574;28;20053;-69
2021/08/17 02:01:28;;;;;;;16.00;2.70;;;13.80;91.10;;;;;;5051782;28;20443;-70
2021/08/17 02:03:53;;;;;;;14.07;2.63;;;13.80;91.10;;;;;;5050692;28;20076;-69
2021/08/17 02:06:19;;;;;;;13.67;2.30;;;13.80;90.90;;;;;;5051934;28;20060;-70
2021/08/17 02:08:45;;;;;;;12.20;2.90;;;13.80;90.80;;;;;;5051627;28;20094;-70
2021/08/17 02:11:10;;;;;;;15.07;3.03;;;13.80;90.80;;;;;;5050817;28;20082;-68
2021/08/17 02:13:36;;;;;;;9.73;2.40;;;13.70;90.70;;;;;;5051455;28;20044;-70
2021/08/17 02:16:02;;;;;;;14.60;2.60;;;13.70;90.70;;;;;;5051503;28;20077;-69
2021/08/17 02:18:30;;;;;;;15.97;3.20;;;13.70;90.60;;;;;;5050756;28;20053;-70
2021/08/17 02:20:58;;;;;;;12.40;2.70;;;13.70;90.50;;;;;;5051121;28;20459;-70
2021/08/17 02:23:24;;;;;;;10.20;2.83;;;13.70;90.50;;;;;;5051432;28;20048;-68
2021/08/17 02:25:49;;;;;;;10.00;2.40;;;13.70;90.50;;;;;;5050544;28;20053;-69
2021/08/17 02:28:15;;;;;;;13.10;2.60;;;13.70;90.50;;;;;;5051299;28;20110;-68
2021/08/17 02:30:41;;;;;;;12.87;2.80;;;13.70;90.60;;;;;;5050999;28;20147;-70
2021/08/17 02:33:07;;;;;;;9.30;2.10;;;13.70;90.50;;;;;;5050415;28;20482;-69
2021/08/17 02:35:33;;;;;;;12.70;3.10;;;13.70;90.50;;;;;;5050699;28;20080;-72
2021/08/17 02:37:59;;;;;;;15.47;2.60;;;13.80;90.60;;;;;;5050814;28;20057;-69
2021/08/17 02:40:25;;;;;;;17.90;2.97;;;13.80;90.60;;;;;;5050805;28;20045;-70
2021/08/17 02:42:51;;;;;;;14.30;2.73;;;13.80;90.60;;;;;;5050898;28;20098;-70
2021/08/17 02:45:17;;;;;;;11.73;3.00;;;13.80;90.60;;;;;;5050676;28;20059;-68
2021/08/17 02:47:43;;;;;;;11.97;2.90;;;13.80;90.60;;;;;;5051062;28;20482;-68
2021/08/17 02:50:09;;;;;;;16.53;2.73;;;13.80;90.70;;;;;;5051305;28;20140;-68
2021/08/17 02:52:35;;;;;;;16.07;3.73;;;13.80;90.70;;;;;;5050315;28;20071;-69
2021/08/17 02:55:00;;;;;;;11.20;2.90;;;13.80;90.70;;;;;;5051074;28;20493;-70
2021/08/17 02:57:27;;;;;;;15.10;3.00;;;13.80;90.80;;;;;;5050908;28;20130;-68
2021/08/17 02:59:53;;;;;;;12.93;2.80;;;13.80;90.90;;;;;;5050330;28;20095;-69
2021/08/17 03:02:18;;;;;;;14.30;4.27;;;13.80;91.00;;;;;;5051298;28;20041;-69
2021/08/17 03:04:44;;;;;;;13.97;2.63;;;13.70;91.00;;;;;;5050889;28;20072;-69
2021/08/17 03:07:10;;;;;;;12.50;3.10;;;13.70;91.10;;;;;;5050418;28;20072;-68
2021/08/17 03:09:35;;;;;;;14.80;3.00;;;13.70;91.10;;;;;;5051109;28;20116;-68
2021/08/17 03:12:01;;;;;;;17.37;3.53;;;13.70;91.10;;;;;;5050817;28;20510;-70
2021/08/17 03:14:27;;;;;;;15.10;3.17;;;13.80;91.10;;;;;;5050598;28;20053;-69
2021/08/17 03:16:52;;;;;;;14.97;2.73;;;13.80;91.00;;;;;;5050854;28;20187;-70
2021/08/17 03:19:18;;;;;;;14.63;2.33;;;13.80;90.90;;;;;;5050813;28;20088;-68
2021/08/17 03:21:45;;;;;;;11.83;2.60;;;13.80;90.80;;;;;;5050069;28;20390;-70
2021/08/17 03:24:10;;;;;;;15.33;2.90;;;13.80;90.70;;;;;;5051090;28;20452;-68
2021/08/17 03:26:36;;;;;;;10.87;1.97;;;13.80;90.60;;;;;;5050693;28;20052;-69
2021/08/17 03:29:02;;;;;;;15.80;2.73;;;13.80;90.60;;;;;;5050003;28;20056;-69
2021/08/17 03:31:28;;;;;;;12.63;2.53;;;13.80;90.50;;;;;;5050699;28;20053;-68
2021/08/17 03:33:54;;;;;;;15.30;2.70;;;13.80;90.50;;;;;;5050442;28;20045;-69
2021/08/17 03:36:20;;;;;;;12.60;2.40;;;13.80;90.40;;;;;;5050193;28;20084;-70
2021/08/17 03:38:45;;;;;;;9.37;2.27;;;13.80;90.30;;;;;;5050636;28;20136;-68
2021/08/17 03:41:11;;;;;;;8.10;2.47;;;13.80;90.30;;;;;;5050706;28;20045;-68
2021/08/17 03:43:38;;;;;;;11.10;2.43;;;13.80;90.20;;;;;;5050089;28;20110;-69
2021/08/17 03:46:08;;;;;;;13.00;2.57;;;13.80;90.20;;;;;;5052797;28;20059;-69
2021/08/17 03:48:33;;;;;;;12.83;2.37;;;13.80;90.20;;;;;;5053690;28;20077;-69
2021/08/17 03:50:59;;;;;;;10.03;2.07;;;13.70;90.10;;;;;;5053845;28;20520;-69
2021/08/17 03:53:26;;;;;;;12.83;2.33;;;13.70;90.10;;;;;;5054448;28;20052;-68
2021/08/17 03:55:52;;;;;;;13.77;2.30;;;13.70;90.10;;;;;;5053013;28;20187;-69
2021/08/17 03:58:18;;;;;;;13.20;2.27;;;13.70;90.10;;;;;;5054192;28;20113;-71
2021/08/17 04:00:43;;;;;;;11.60;2.77;;;13.70;90.10;;;;;;5054420;28;20059;-69
2021/08/17 04:03:09;;;;;;;9.10;2.00;;;13.60;90.20;;;;;;5053272;28;20056;-70
2021/08/17 04:05:35;;;;;;;14.33;2.20;;;13.70;90.20;;;;;;5053592;28;20060;-69
2021/08/17 04:08:02;;;;;;;13.80;2.60;;;13.60;90.20;;;;;;5053677;28;20577;-69
2021/08/17 04:10:28;;;;;;;11.33;2.60;;;13.60;90.30;;;;;;5053477;28;20049;-68
2021/08/17 04:12:53;;;;;;;15.33;2.53;;;13.60;90.40;;;;;;5053592;28;20044;-69
2021/08/17 04:15:19;;;;;;;10.10;2.00;;;13.60;90.40;;;;;;5053774;28;20140;-69
2021/08/17 04:17:45;;;;;;;15.40;3.80;;;13.50;90.40;;;;;;5052492;28;20053;-69
2021/08/17 04:20:11;;;;;;;13.60;2.60;;;13.50;90.50;;;;;;5053740;28;20065;-69
2021/08/17 04:22:38;;;;;;;13.87;2.70;;;13.50;90.50;;;;;;5053761;28;20040;-69
2021/08/17 04:25:05;;;;;;;15.60;2.57;;;13.50;90.50;;;;;;5052653;28;20052;-69
2021/08/17 04:27:30;;;;;;;9.77;2.43;;;13.50;90.50;;;;;;5053618;28;20437;-69
2021/08/17 04:30:01;;;;;;;11.67;1.90;;;13.50;90.60;;;;;;5053572;28;20470;-69
2021/08/17 04:32:26;;;;;;;13.37;2.73;;;13.40;90.60;;;;;;5052730;28;20132;-69
2021/08/17 04:34:52;;;;;;;12.80;2.30;;;13.50;90.60;;;;;;5052960;28;20076;-69
2021/08/17 04:37:18;;;;;;;15.13;2.73;;;13.50;90.70;;;;;;5053118;28;20041;-68
2021/08/17 04:39:43;;;;;;;10.83;2.33;;;13.50;90.70;;;;;;5052492;28;20055;-69
2021/08/17 04:42:09;;;;;;;10.63;2.07;;;13.50;90.70;;;;;;5053342;28;20052;-70
2021/08/17 04:44:35;;;;;;;13.17;2.40;;;13.50;90.70;;;;;;5053067;28;20049;-68
2021/08/17 04:47:02;;;;;;;18.33;2.97;;;13.50;90.70;;;;;;5052852;28;20049;-69
2021/08/17 04:49:28;;;;;;;10.77;2.23;;;13.50;90.80;;;;;;5053253;28;20049;-68
2021/08/17 04:51:53;;;;;;;16.77;3.47;;;13.60;90.80;;;;;;5046544;28;20119;-69
2021/08/17 04:54:19;;;;;;;12.33;2.53;;;13.60;90.90;;;;;;5033396;28;20083;-69
2021/08/17 04:56:45;;;;;;;13.50;2.83;;;13.60;90.90;;;;;;5031738;28;20045;-69
2021/08/17 04:59:10;;;;;;;7.60;2.07;;;13.60;90.90;;;;;;5032120;28;20093;-68
2021/08/17 05:01:36;;;;;;;8.53;2.33;;;13.60;90.80;;;;;;5033022;28;20136;-71
2021/08/17 05:04:04;;;;;;;12.67;2.57;;;13.70;90.80;;;;;;5032260;28;20049;-69
2021/08/17 05:06:30;;;;;;;10.90;2.47;;;13.70;90.80;;;;;;5031978;28;20057;-70
2021/08/17 05:08:55;;;;;;;15.63;2.83;;;13.70;90.80;;;;;;5032590;28;20045;-69
2021/08/17 05:11:21;;;;;;;14.03;3.70;;;13.80;90.80;;;;;;5032539;28;20060;-70
2021/08/17 05:13:47;;;;;;;9.47;2.10;;;13.80;90.80;;;;;;5031871;28;20045;-69
2021/08/17 05:16:12;;;;;;;13.60;2.47;;;13.80;90.80;;;;;;5032644;28;20439;-69
2021/08/17 05:18:38;;;;;;;13.60;3.47;;;13.90;90.80;;;;;;5032316;28;20077;-70
2021/08/17 05:21:04;;;;;;;13.20;3.07;;;13.90;90.80;;;;;;5031595;28;20065;-70
2021/08/17 05:23:30;;;;;;;13.23;3.00;;;13.90;90.80;;;;;;5031993;28;20407;-70
2021/08/17 05:25:55;;;;;;;14.07;3.47;;;13.90;90.80;;;;;;5032184;28;20518;-68
2021/08/17 05:28:22;;;;;;;15.47;4.10;;;14.00;90.80;;;;;;5031591;28;20049;-69
2021/08/17 05:30:48;;;;;;;10.07;2.73;;;14.00;90.80;;;;;;5032017;28;20127;-69
2021/08/17 05:33:14;;;;;;;11.30;3.23;;;14.10;90.80;;;;;;5032308;28;20042;-68
2021/08/17 05:35:40;;;;;;;12.47;3.57;;;14.00;90.70;;;;;;5030983;28;20052;-69
2021/08/17 05:38:06;;;;;;;14.07;3.67;;;14.10;90.80;;;;;;5032395;28;20427;-69
2021/08/17 05:40:32;;;;;;;15.90;3.47;;;14.10;90.70;;;;;;5032275;28;20423;-69
2021/08/17 05:42:58;;;;;;;11.63;3.30;;;14.10;90.80;;;;;;5031159;28;20164;-69
2021/08/17 05:45:23;;;;;;;15.60;3.97;;;14.20;90.90;;;;;;5032287;28;20133;-69
2021/08/17 05:47:50;;;;;;;14.87;3.73;;;14.20;91.00;;;;;;5031535;28;20134;-69
2021/08/17 05:50:18;;;;;;;12.37;3.43;;;14.20;91.20;;;;;;5031455;28;20111;-69
2021/08/17 05:52:45;;;;;;;13.43;3.50;;;14.30;91.30;;;;;;5031920;28;20403;-69
2021/08/17 05:55:11;;;;;;;12.30;3.80;;;14.30;91.40;;;;;;5031534;28;20045;-69
2021/08/17 05:57:37;;;;;;;13.70;3.77;;;14.30;91.40;;;;;;5031914;28;20095;-69
2021/08/17 06:00:13;;;;;;;12.17;3.53;;;14.30;91.50;;;;;;5031614;28;20080;-69
2021/08/17 06:02:39;;;;;;;15.63;4.70;;;14.30;91.60;;;;;;5030834;28;20060;-69
2021/08/17 06:05:06;;;;;;;15.23;4.50;;;14.30;91.60;;;;;;5032067;28;20049;-69
2021/08/17 06:07:31;;;;;;;20.90;4.60;;;14.30;91.70;;;;;;5031937;28;20053;-69
2021/08/17 06:09:57;;;;;;;13.93;4.47;;;14.30;91.70;;;;;;5030653;28;20405;-68
2021/08/17 06:12:23;;;;;;;12.27;3.60;;;14.30;91.70;;;;;;5031817;28;20481;-69
2021/08/17 06:14:49;;;;;;;16.13;4.50;;;14.30;91.70;;;;;;5031203;28;20093;-69
2021/08/17 06:17:14;;;;;;;15.37;4.90;;;14.40;91.70;;;;;;5031066;28;20418;-70
2021/08/17 06:19:40;;;;;;;13.57;3.50;;;14.40;91.70;;;;;;5031052;28;20510;-70
2021/08/17 06:22:06;;;;;;;16.50;4.87;;;14.40;91.70;;;;;;5031571;28;20479;-68
2021/08/17 06:24:31;;;;;;;13.47;4.23;;;14.50;91.80;;;;;;5041191;28;20044;-68
2021/08/17 06:26:57;;;;;;;16.07;4.97;;;14.50;91.80;;;;;;5050995;28;20485;-68
2021/08/17 06:29:23;;;;;;;18.27;5.77;;;14.60;91.80;;;;;;5051392;28;20045;-70
2021/08/17 06:31:49;;;;;;;13.13;4.53;;;14.60;91.70;;;;;;5050023;28;20148;-68
2021/08/17 06:34:15;;;;;;;16.67;4.87;;;14.70;91.70;;;;;;5051106;28;20048;-68
2021/08/17 06:36:42;;;;;;;16.23;4.83;;;14.80;91.70;;;;;;5051111;28;20060;-69
2021/08/17 06:39:08;;;;;;;17.90;5.07;;;14.80;91.70;;;;;;5050421;28;20120;-69
2021/08/17 06:41:34;;;;;;;17.17;4.87;;;14.90;91.70;;;;;;5051127;28;20206;-68
2021/08/17 06:44:01;;;;;;;13.57;4.70;;;14.90;91.60;;;;;;5050679;28;20463;-68
2021/08/17 06:46:28;;;;;;;16.23;4.83;;;14.90;91.70;;;;;;5050125;28;20151;-69
2021/08/17 06:48:55;;;;;;;13.53;4.63;;;14.90;91.70;;;;;;5050706;28;20053;-68
2021/08/17 06:51:21;;;;;;;25.37;5.70;;;15.00;91.70;;;;;;5049844;28;20057;-69
2021/08/17 06:53:46;;;;;;;17.77;5.40;;;15.00;91.70;;;;;;5048738;28;20049;-69
2021/08/17 06:56:12;;;;;;;14.47;4.73;;;15.00;91.70;;;;;;5048870;28;20493;-71
2021/08/17 06:58:38;;;;;;;19.73;5.60;;;15.00;91.60;;;;;;5048940;28;20123;-70
2021/08/17 07:01:04;;;;;;;14.67;5.50;;;15.10;91.60;;;;;;5049452;28;20116;-69
2021/08/17 07:03:30;;;;;;;14.57;5.20;;;15.20;91.50;;;;;;5049982;28;20114;-70
2021/08/17 07:05:56;;;;;;;15.13;4.67;;;15.20;91.30;;;;;;5049801;28;20110;-70
2021/08/17 07:08:22;;;;;;;10.50;4.57;;;15.30;91.20;;;;;;5050626;28;20047;-68
2021/08/17 07:10:48;;;;;;;13.00;4.40;;;15.40;90.90;;;;;;5050285;28;20139;-68
2021/08/17 07:13:14;;;;;;;14.70;5.00;;;15.50;90.70;;;;;;5049933;28;20048;-69
2021/08/17 07:15:41;;;;;;;8.37;4.17;;;15.50;90.40;;;;;;5050321;28;20474;-70
2021/08/17 07:18:07;;;;;;;12.97;4.00;;;15.60;90.20;;;;;;5050610;28;20450;-69
2021/08/17 07:20:33;;;;;;;10.97;5.00;;;15.70;90.00;;;;;;5051738;28;20052;-69
2021/08/17 07:22:59;;;;;;;8.87;4.07;;;15.80;89.80;;;;;;5054234;28;20052;-70
2021/08/17 07:25:25;;;;;;;10.33;3.70;;;15.90;90.20;;;;;;5053651;28;20478;-70
2021/08/17 07:27:50;;;;;;;9.40;4.33;;;15.90;89.30;;;;;;5051536;28;20530;-69
2021/08/17 07:30:17;;;;;;;8.97;4.17;;;16.00;88.70;;;;;;5052698;28;20103;-70
2021/08/17 07:32:44;;;;;;;11.90;4.30;;;16.10;88.80;;;;;;5052953;28;20148;-70
2021/08/17 07:35:12;;;;;;;8.37;4.23;;;16.10;88.30;;;;;;5052092;28;20045;-71
2021/08/17 07:37:39;;;;;;;11.27;4.60;;;16.20;87.90;;;;;;5053147;28;20142;-69
2021/08/17 07:40:06;;;;;;;11.27;4.63;;;16.20;87.30;;;;;;5053190;28;20049;-71
2021/08/17 07:42:32;;;;;;;10.60;4.23;;;16.30;87.30;;;;;;5053759;28;20136;-69
2021/08/17 07:44:58;;;;;;;13.73;4.87;;;16.30;87.50;;;;;;5053958;28;20076;-71
2021/08/17 07:47:24;;;;;;;12.77;4.50;;;16.30;87.50;;;;;;5054230;28;20470;-70
2021/08/17 07:49:50;;;;;;;9.47;4.27;;;16.40;87.60;;;;;;5053159;28;20130;-69
2021/08/17 07:52:16;;;;;;;8.50;3.97;;;16.40;87.60;;;;;;5053940;28;20455;-70
2021/08/17 07:54:42;;;;;;;13.93;5.00;;;16.40;87.50;;;;;;5052937;28;20514;-71
2021/08/17 07:57:08;;;;;;;9.07;3.93;;;16.50;87.50;;;;;;5054212;28;20067;-71
2021/08/17 07:59:33;;;;;;;11.83;4.87;;;16.50;87.50;;;;;;5053857;28;20480;-70
2021/08/17 08:01:59;;;;;;;12.27;4.70;;;16.50;87.70;;;;;;5052971;28;20111;-71
2021/08/17 08:04:25;;;;;;;11.00;4.80;;;16.60;88.00;;;;;;5054761;28;20442;-70
2021/08/17 08:06:50;;;;;;;12.20;5.00;;;16.60;87.90;;;;;;5054357;28;20482;-72
2021/08/17 08:09:16;;;;;;;12.63;4.80;;;16.60;87.80;;;;;;5053559;28;20060;-71
2021/08/17 08:11:42;;;;;;;13.57;5.03;;;16.60;88.00;;;;;;5054502;28;20095;-71
2021/08/17 08:14:07;;;;;;;15.97;5.07;;;16.70;87.90;;;;;;5055046;28;20347;-70
2021/08/17 08:16:33;;;;;;;14.27;5.40;;;16.70;88.00;;;;;;5054231;28;20123;-70
2021/08/17 08:18:59;;;;;;;14.83;5.43;;;16.70;88.10;;;;;;5054047;28;20056;-71
2021/08/17 08:21:24;;;;;;;11.97;5.17;;;16.70;88.10;;;;;;5054698;28;20140;-71
2021/08/17 08:23:50;;;;;;;13.97;5.00;;;16.80;87.90;;;;;;5053334;28;20049;-70
2021/08/17 08:26:15;;;;;;;9.70;5.17;;;16.70;88.20;;;;;;5053959;28;20067;-71
2021/08/17 08:28:41;;;;;;;15.00;6.03;;;16.80;88.40;;;;;;5053356;28;20049;-70
2021/08/17 08:31:07;;;;;;;12.87;5.80;;;16.70;88.40;;;;;;5052153;28;20506;-70
2021/08/17 08:33:32;;;;;;;13.63;6.33;;;16.70;88.60;;;;;;5052047;28;20045;-71
2021/08/17 08:35:58;;;;;;;15.07;5.07;;;16.70;88.80;;;;;;5053021;28;20055;-72
2021/08/17 08:38:24;;;;;;;13.53;6.00;;;16.60;88.90;;;;;;5052630;28;20045;-71
2021/08/17 08:40:51;;;;;;;16.43;7.57;;;16.60;89.10;;;;;;5053004;28;20052;-70
2021/08/17 08:43:20;;;;;;;15.37;5.93;;;16.70;89.30;;;;;;5052904;28;20061;-73
2021/08/17 08:45:47;;;;;;;12.30;6.33;;;16.70;89.50;;;;;;5052262;28;20069;-70
2021/08/17 08:48:14;;;;;;;11.23;6.70;;;16.70;89.40;;;;;;5053628;28;20405;-72
2021/08/17 08:50:42;;;;;;;14.17;7.07;;;16.70;89.50;;;;;;5052777;28;20122;-70
2021/08/17 08:53:08;;;;;;;16.00;7.50;;;16.80;89.50;;;;;;5052533;28;20053;-70
2021/08/17 08:55:34;;;;;;;16.73;7.30;;;16.80;89.70;;;;;;5052696;28;20489;-69
2021/08/17 08:58:00;;;;;;;17.80;7.40;;;16.90;89.70;;;;;;5052046;28;20049;-71
2021/08/17 09:00:25;;;;;;;20.03;7.87;;;17.00;89.60;;;;;;5052906;28;20472;-70
2021/08/17 09:02:51;;;;;;;19.73;7.87;;;17.20;89.50;;;;;;5052749;28;20087;-72
2021/08/17 09:05:20;;;;;;;21.90;7.90;;;17.20;89.10;;;;;;5051946;28;20498;-71
2021/08/17 09:07:47;;;;;;;16.10;8.60;;;17.30;89.00;;;;;;5052638;28;20114;-71
2021/08/17 09:10:25;;;;;;;16.30;8.13;;;17.40;88.80;;;;;;5052641;28;20454;-72
2021/08/17 09:12:54;;;;;;;16.30;8.23;;;17.50;88.60;;;;;;5051703;28;20147;-71
2021/08/17 09:15:34;;;;;;;12.93;8.23;;;17.60;88.70;;;;;;5052747;28;20115;-72
2021/08/17 09:18:01;;;;;;;17.48;8.73;;;17.70;87.80;;;;;;5052487;28;20490;-72
2021/08/17 09:20:33;;;;;;;15.03;8.20;;;17.80;87.70;;;;;;5051746;28;20052;-71
2021/08/17 09:23:33;;;;;;;15.00;8.37;;;17.80;87.20;;;;;;5052051;28;20472;-72
2021/08/17 09:26:24;;;;;;;17.47;8.83;;;18.00;87.30;;;;;;5051978;28;20183;-72
2021/08/17 09:29:00;;;;;;;15.43;8.73;;;18.20;84.30;;;;;;5052478;28;20045;-72
2021/08/17 09:31:35;;;;;;;15.67;8.70;;;18.20;84.50;;;;;;5052649;28;20056;-72
2021/08/17 09:34:01;;;;;;;18.77;8.47;;;18.20;82.70;;;;;;5051907;28;20045;-72
2021/08/17 09:36:36;;;;;;;19.73;9.60;;;18.20;83.40;;;;;;5052830;28;20055;-71
2021/08/17 09:39:02;;;;;;;19.13;9.50;;;18.30;83.10;;;;;;5052375;28;20073;-72
2021/08/17 09:41:28;;;;;;;15.40;9.73;;;18.40;82.40;;;;;;5051905;28;20453;-73
2021/08/17 09:44:08;;;;;;;18.00;9.17;;;18.50;81.80;;;;;;5051706;28;20049;-71
2021/08/17 09:46:36;;;;;;;16.33;9.80;;;18.50;80.20;;;;;;5052542;28;20059;-71
2021/08/17 09:49:20;;;;;;;16.30;9.47;;;18.60;80.10;;;;;;5051379;28;20148;-72
2021/08/17 09:51:47;;;;;;;14.30;9.37;;;18.60;78.10;;;;;;5051710;28;20106;-73
2021/08/17 09:54:15;;;;;;;14.87;9.60;;;18.60;78.40;;;;;;5051280;28;20049;-69
2021/08/17 09:56:42;;;;;;;15.70;8.83;;;18.50;78.10;;;;;;5051996;28;20057;-70
2021/08/17 09:59:07;;;;;;;13.60;9.37;;;18.50;78.10;;;;;;5052247;28;20063;-73
2021/08/17 10:01:35;;;;;;;19.40;10.77;;;18.50;78.30;;;;;;5051148;28;20056;-73
2021/08/17 10:04:02;;;;;;;19.23;10.33;;;18.50;78.30;;;;;;5042366;28;20499;-70
2021/08/17 10:06:28;;;;;;;18.67;9.57;;;18.50;78.40;;;;;;5040284;28;20106;-72
2021/08/17 10:08:57;;;;;;;19.10;10.23;;;18.40;78.30;;;;;;5032544;28;20056;-74
2021/08/17 10:11:23;;;;;;;17.83;9.83;;;18.50;78.50;;;;;;5031992;28;20060;-70
2021/08/17 10:13:49;;;;;;;17.40;9.67;;;18.50;78.70;;;;;;5049507;28;20049;-73
2021/08/17 10:16:19;;;;;;;16.97;9.77;;;18.50;78.70;;;;;;5051137;28;20049;-72
2021/08/17 10:18:46;;;;;;;18.50;9.10;;;18.60;78.60;;;;;;5051270;28;20048;-73
2021/08/17 10:21:15;;;;;;;18.83;9.63;;;18.70;78.80;;;;;;5051355;28;20055;-72
2021/08/17 10:23:44;;;;;;;14.83;9.67;;;18.80;78.50;;;;;;5050559;28;20518;-70
2021/08/17 10:26:29;;;;;;;15.53;9.43;;;18.80;77.50;;;;;;5051757;28;20064;-72
2021/08/17 10:28:55;;;;;;;15.17;9.60;;;18.70;76.00;;;;;;5051163;28;20132;-72
2021/08/17 10:31:23;;;;;;;16.93;9.73;;;18.70;76.50;;;;;;5050498;28;20060;-71
2021/08/17 10:33:53;;;;;;;16.30;9.97;;;18.70;76.50;;;;;;5051305;28;20048;-72
2021/08/17 10:36:34;;;;;;;15.70;8.80;;;18.70;76.40;;;;;;5050718;28;20053;-71
2021/08/17 10:39:21;;;;;;;18.97;9.20;;;18.70;74.70;;;;;;5051083;28;20497;-72
2021/08/17 10:41:51;;;;;;;18.10;8.90;;;18.80;75.80;;;;;;5046914;28;20179;-73
2021/08/17 10:44:33;;;;;;;17.30;9.83;;;18.80;76.10;;;;;;5050827;28;20068;-71
2021/08/17 10:47:11;;;;;;;20.30;8.87;;;18.70;76.50;;;;;;5050912;28;20056;-71
2021/08/17 10:49:48;;;;;;;14.57;9.00;;;18.80;76.70;;;;;;5051281;28;20422;-71
2021/08/17 10:52:38;;;;;;;16.57;9.13;;;19.00;76.70;;;;;;5050184;28;20118;-71
2021/08/17 10:55:34;;;;;;;13.27;8.90;;;19.10;76.40;;;;;;5050422;28;20072;-72
2021/08/17 10:58:05;;;;;;;14.03;7.97;;;19.20;73.90;;;;;;5050331;28;20128;-72
2021/08/17 11:00:50;;;;;;;15.50;8.93;;;19.10;75.80;;;;;;5051023;28;20183;-72
2021/08/17 11:03:44;;;;;;;14.40;8.40;;;19.00;75.00;;;;;;5051268;28;20460;-74
2021/08/17 11:06:47;;;;;;;15.73;9.10;;;18.90;74.20;;;;;;5050147;28;20090;-72
2021/08/17 11:09:28;;;;;;;14.77;9.07;;;18.90;75.30;;;;;;5050723;28;20049;-71
2021/08/17 11:11:58;;;;;;;14.50;8.57;;;18.90;76.00;;;;;;5049924;28;20049;-75
2021/08/17 11:14:26;;;;;;;17.20;9.10;;;18.90;75.60;;;;;;5051002;28;20076;-75
2021/08/17 11:17:00;;;;;;;16.20;9.20;;;18.80;75.40;;;;;;5050923;28;20049;-74
2021/08/17 11:19:28;;;;;;;14.57;8.10;;;18.80;75.70;;;;;;5049945;28;20559;-72
2021/08/17 11:21:59;;;;;;;13.23;8.27;;;18.70;75.70;;;;;;5050500;28;20049;-73
2021/08/17 11:24:30;;;;;;;13.82;8.10;;;18.60;74.40;;;;;;5050792;28;20128;-72
2021/08/17 11:27:10;;;;;;;15.32;7.35;;;18.40;74.60;;;;;;5049813;28;20053;-72
2021/08/17 11:30:06;;;;;;;15.53;8.43;;;18.20;74.50;;;;;;5050875;28;20080;-71
2021/08/17 11:32:56;;;;;;;15.50;8.07;;;18.10;75.40;;;;;;5045951;28;20095;-71
2021/08/17 11:35:26;;;;;;;11.17;7.40;;;18.00;76.10;;;;;;5046765;28;20131;-71
2021/08/17 11:37:55;;;;;;;18.73;8.20;;;17.90;76.40;;;;;;5046014;28;20099;-70
2021/08/17 11:40:22;;;;;;;13.90;7.67;;;17.90;76.70;;;;;;5038166;28;20046;-71
2021/08/17 11:42:51;;;;;;;15.03;8.17;;;17.90;76.50;;;;;;5039739;28;20044;-73
2021/08/17 11:45:18;;;;;;;12.70;7.33;;;17.90;76.40;;;;;;5041093;28;20053;-71
2021/08/17 11:47:46;;;;;;;14.53;7.50;;;17.90;75.20;;;;;;5037920;28;20540;-72
2021/08/17 11:50:15;;;;;;;13.97;7.73;;;17.90;74.80;;;;;;5039881;28;20118;-75
2021/08/17 11:52:43;;;;;;;11.77;7.47;;;18.00;74.00;;;;;;5040184;28;20049;-73
2021/08/17 11:55:11;;;;;;;12.63;7.47;;;18.20;73.20;;;;;;5039258;28;20454;-72
2021/08/17 11:57:56;;;;;;;12.10;7.07;;;18.30;73.10;;;;;;5039265;28;20049;-73
2021/08/17 12:00:30;;;;;;;14.03;7.13;;;18.60;72.80;;;;;;5040641;28;20049;-71
2021/08/17 12:03:02;;;;;;;14.47;7.43;;;19.00;71.80;;;;;;5039464;28;20065;-73
2021/08/17 12:05:33;;;;;;;11.53;7.20;;;19.20;70.90;;;;;;5039821;28;20111;-71
2021/08/17 12:07:59;;;;;;;12.93;6.47;;;19.20;71.20;;;;;;5040965;28;20562;-72
2021/08/17 12:10:36;;;;;;;11.87;7.30;;;19.20;71.10;;;;;;5044422;28;20049;-72
2021/08/17 12:13:03;;;;;;;10.63;7.07;;;19.10;71.60;;;;;;5044153;28;20176;-72
2021/08/17 12:15:42;;;;;;;10.83;6.53;;;19.00;72.10;;;;;;5042668;28;20041;-72
2021/08/17 12:18:17;;;;;;;10.37;6.80;;;18.80;72.10;;;;;;5042786;28;20098;-71
2021/08/17 12:20:49;;;;;;;13.47;7.63;;;18.60;70.80;;;;;;5041543;28;20103;-72
2021/08/17 12:23:26;;;;;;;17.30;7.40;;;18.40;71.40;;;;;;5041932;28;20052;-75
2021/08/17 12:25:55;;;;;;;12.03;6.73;;;18.40;71.80;;;;;;5042038;28;20570;-71
2021/08/17 12:28:30;;;;;;;12.23;6.00;;;18.30;72.60;;;;;;5041904;28;20388;-73
2021/08/17 12:31:18;;;;;;;10.87;6.03;;;18.30;73.10;;;;;;5041066;28;20049;-70
2021/08/17 12:33:57;;;;;;;11.07;6.27;;;18.20;73.80;;;;;;5041596;28;20042;-71
2021/08/17 12:36:37;;;;;;;12.50;6.23;;;18.20;74.20;;;;;;5040856;28;20227;-73
2021/08/17 12:39:13;;;;;;;11.00;6.10;;;18.20;74.50;;;;;;5041238;28;20512;-70
2021/08/17 12:41:50;;;;;;;12.83;6.60;;;18.20;74.30;;;;;;5040994;28;20052;-71
2021/08/17 12:44:25;;;;;;;12.67;6.97;;;18.20;74.70;;;;;;5041269;28;20498;-72